createdAt,value
2018-06-16T00:00:13.899Z,21.20
2018-06-16T00:02:42.254Z,21.20
2018-06-16T00:05:10.500Z,21.10
2018-06-16T00:07:38.754Z,21.20
2018-06-16T00:10:07.077Z,21.20
2018-06-16T00:15:03.459Z,21.20
2018-06-16T00:17:31.835Z,21.10
2018-06-16T00:20:00.092Z,21.00
2018-06-16T00:22:28.393Z,21.00
2018-06-16T00:25:00.349Z,21.00
2018-06-16T00:27:29.444Z,20.90
2018-06-16T00:29:58.161Z,20.80
2018-06-16T00:32:26.696Z,20.80
2018-06-16T00:34:55.007Z,20.70
2018-06-16T00:37:23.947Z,20.60
2018-06-16T00:39:52.362Z,20.60
2018-06-16T00:42:21.395Z,20.70
2018-06-16T00:44:49.700Z,20.50
2018-06-16T00:47:18.052Z,20.40
2018-06-16T00:49:46.281Z,20.40
2018-06-16T00:52:14.541Z,20.30
2018-06-16T00:54:42.816Z,20.40
2018-06-16T00:57:22.684Z,20.40
2018-06-16T00:59:50.986Z,20.40
2018-06-16T01:02:19.232Z,20.30
2018-06-16T01:04:47.515Z,20.30
2018-06-16T01:07:15.802Z,20.20
2018-06-16T01:09:44.279Z,20.10
2018-06-16T01:12:12.536Z,20.10
2018-06-16T01:14:40.769Z,20.00
2018-06-16T01:17:09.012Z,20.00
2018-06-16T01:19:37.265Z,20.00
2018-06-16T01:22:05.590Z,19.80
2018-06-16T01:24:33.796Z,19.80
2018-06-16T01:27:02.056Z,19.80
2018-06-16T01:29:30.327Z,19.70
2018-06-16T01:31:58.600Z,19.60
2018-06-16T01:34:26.830Z,19.60
2018-06-16T01:36:55.122Z,19.50
2018-06-16T01:39:23.390Z,19.50
2018-06-16T01:41:51.664Z,19.40
2018-06-16T01:44:19.931Z,19.30
2018-06-16T01:46:48.186Z,19.30
2018-06-16T01:49:17.456Z,19.20
2018-06-16T01:51:45.720Z,19.20
2018-06-16T01:54:13.995Z,19.20
2018-06-16T01:56:42.265Z,19.20
2018-06-16T01:59:10.564Z,19.20
2018-06-16T02:01:38.832Z,19.10
2018-06-16T02:04:07.121Z,19.20
2018-06-16T02:06:35.368Z,19.10
2018-06-16T02:09:06.112Z,19.10
2018-06-16T02:11:34.417Z,19.10
2018-06-16T02:16:30.856Z,19.10
2018-06-16T02:18:59.170Z,19.10
2018-06-16T02:21:27.480Z,19.00
2018-06-16T02:23:55.742Z,18.90
2018-06-16T02:26:24.050Z,19.00
2018-06-16T02:28:52.412Z,19.00
2018-06-16T02:31:20.668Z,18.90
2018-06-16T02:33:48.929Z,19.00
2018-06-16T02:36:17.209Z,18.90
2018-06-16T02:38:45.441Z,18.90
2018-06-16T02:41:13.690Z,18.90
2018-06-16T02:43:42.820Z,18.80
2018-06-16T02:48:39.040Z,18.80
2018-06-16T02:51:07.312Z,18.80
2018-06-16T02:53:35.578Z,18.70
2018-06-16T02:56:03.855Z,18.70
2018-06-16T02:58:32.107Z,18.70
2018-06-16T03:01:00.524Z,18.60
2018-06-16T03:03:28.794Z,18.60
2018-06-16T03:05:57.046Z,18.40
2018-06-16T03:08:25.315Z,18.40
2018-06-16T03:10:53.613Z,18.30
2018-06-16T03:13:21.878Z,18.20
2018-06-16T03:15:50.196Z,18.10
2018-06-16T03:18:18.504Z,18.20
2018-06-16T03:20:46.793Z,18.30
2018-06-16T03:23:15.263Z,18.40
2018-06-16T03:25:43.512Z,18.40
2018-06-16T03:30:39.895Z,18.40
2018-06-16T03:33:08.192Z,18.40
2018-06-16T03:35:36.432Z,18.50
2018-06-16T03:38:04.731Z,18.50
2018-06-16T03:40:33.019Z,18.60
2018-06-16T03:43:01.272Z,18.60
2018-06-16T03:45:29.566Z,18.50
2018-06-16T03:47:57.844Z,18.50
2018-06-16T03:50:26.140Z,18.40
2018-06-16T03:52:54.407Z,18.40
2018-06-16T03:55:22.707Z,18.40
2018-06-16T03:57:50.974Z,18.60
2018-06-16T04:00:19.292Z,18.60
2018-06-16T04:02:47.560Z,18.60
2018-06-16T04:05:15.867Z,18.80
2018-06-16T04:07:44.168Z,18.80
2018-06-16T04:10:12.445Z,18.70
2018-06-16T04:12:40.726Z,18.70
2018-06-16T04:15:09.037Z,18.70
2018-06-16T04:17:37.300Z,18.70
2018-06-16T04:20:06.442Z,18.80
2018-06-16T04:22:34.820Z,18.80
2018-06-16T04:25:03.200Z,18.70
2018-06-16T04:27:31.577Z,18.60
2018-06-16T04:29:59.817Z,18.50
2018-06-16T04:32:28.086Z,18.60
2018-06-16T04:34:56.401Z,18.60
2018-06-16T04:37:24.652Z,18.70
2018-06-16T04:42:20.924Z,18.70
2018-06-16T04:44:49.200Z,18.70
2018-06-16T04:47:17.496Z,18.70
2018-06-16T04:49:45.743Z,18.80
2018-06-16T04:52:14.011Z,18.90
2018-06-16T04:54:42.320Z,18.90
2018-06-16T04:57:10.629Z,19.00
2018-06-16T04:59:38.909Z,18.90
2018-06-16T05:02:07.266Z,18.80
2018-06-16T05:04:36.263Z,18.70
2018-06-16T05:07:04.583Z,18.70
2018-06-16T05:09:32.848Z,18.80
2018-06-16T05:12:01.129Z,18.90
2018-06-16T05:16:57.432Z,18.80
2018-06-16T05:19:25.680Z,18.80
2018-06-16T05:21:53.981Z,18.80
2018-06-16T05:24:22.197Z,19.00
2018-06-16T05:26:50.513Z,18.90
2018-06-16T05:29:18.800Z,19.00
2018-06-16T05:31:47.064Z,19.10
2018-06-16T05:34:15.337Z,19.20
2018-06-16T05:36:43.564Z,19.20
2018-06-16T05:39:11.831Z,19.40
2018-06-16T05:41:40.080Z,19.40
2018-06-16T05:44:08.412Z,19.30
2018-06-16T05:46:36.647Z,19.40
2018-06-16T05:49:04.979Z,19.50
2018-06-16T05:51:33.338Z,19.80
2018-06-16T05:56:29.678Z,20.10
2018-06-16T05:58:57.969Z,19.90
2018-06-16T06:01:26.192Z,19.80
2018-06-16T06:03:54.575Z,19.80
2018-06-16T06:06:22.830Z,19.80
2018-06-16T06:08:51.200Z,19.80
2018-06-16T06:11:19.528Z,20.00
2018-06-16T06:13:47.840Z,20.10
2018-06-16T06:16:16.232Z,20.30
2018-06-16T06:18:44.527Z,20.40
2018-06-16T06:21:12.745Z,20.50
2018-06-16T06:23:41.018Z,20.80
2018-06-16T06:26:09.314Z,21.20
2018-06-16T06:28:37.627Z,21.70
2018-06-16T06:31:05.936Z,22.00
2018-06-16T06:33:34.215Z,22.20
2018-06-16T06:36:02.547Z,22.60
2018-06-16T06:38:30.876Z,22.80
2018-06-16T06:40:59.180Z,23.10
2018-06-16T06:43:27.573Z,23.20
2018-06-16T06:45:55.867Z,23.10
2018-06-16T06:48:24.127Z,22.90
2018-06-16T06:50:52.413Z,23.00
2018-06-16T06:53:20.714Z,23.20
2018-06-16T06:55:49.101Z,23.40
2018-06-16T06:58:17.371Z,23.40
2018-06-16T07:00:45.674Z,23.20
2018-06-16T07:03:13.999Z,23.30
2018-06-16T07:05:42.301Z,23.50
2018-06-16T07:08:10.605Z,23.80
2018-06-16T07:10:38.880Z,23.70
2018-06-16T07:13:07.372Z,23.80
2018-06-16T07:18:03.817Z,24.00
2018-06-16T07:20:32.948Z,23.90
2018-06-16T07:23:02.051Z,24.00
2018-06-16T07:25:30.319Z,24.30
2018-06-16T07:27:58.701Z,24.50
2018-06-16T07:30:27.019Z,24.60
2018-06-16T07:32:55.326Z,24.70
2018-06-16T07:35:23.576Z,25.00
2018-06-16T07:37:51.926Z,25.10
2018-06-16T07:40:20.266Z,25.10
2018-06-16T07:42:48.634Z,24.90
2018-06-16T07:45:17.178Z,25.30
2018-06-16T07:47:45.449Z,25.70
2018-06-16T07:50:13.711Z,25.80
2018-06-16T07:52:42.056Z,25.90
2018-06-16T07:55:10.532Z,25.50
2018-06-16T07:57:38.928Z,25.10
2018-06-16T08:00:07.501Z,25.10
2018-06-16T08:02:35.975Z,25.40
2018-06-16T08:05:04.252Z,25.60
2018-06-16T08:07:32.565Z,25.60
2018-06-16T08:10:00.863Z,26.00
2018-06-16T08:12:29.164Z,26.70
2018-06-16T08:14:57.460Z,27.30
2018-06-16T08:17:25.764Z,28.10
2018-06-16T08:19:54.040Z,28.70
2018-06-16T08:22:22.302Z,29.70
2018-06-16T08:24:50.624Z,30.40
2018-06-16T08:27:18.932Z,30.80
2018-06-16T08:29:47.240Z,30.60
2018-06-16T08:32:15.530Z,30.00
2018-06-16T08:34:43.828Z,30.10
2018-06-16T08:37:12.189Z,30.50
2018-06-16T08:39:40.487Z,30.80
2018-06-16T08:42:08.810Z,30.80
2018-06-16T08:44:37.274Z,31.20
2018-06-16T08:47:05.666Z,31.40
2018-06-16T08:49:33.993Z,31.50
2018-06-16T08:52:02.296Z,31.60
2018-06-16T08:56:58.588Z,31.80
2018-06-16T08:59:26.872Z,31.90
2018-06-16T09:01:55.144Z,32.60
2018-06-16T09:04:23.489Z,32.70
2018-06-16T09:06:51.863Z,32.20
2018-06-16T09:09:20.322Z,32.30
2018-06-16T09:11:48.818Z,32.10
2018-06-16T09:16:45.186Z,32.10
2018-06-16T09:19:14.193Z,31.80
2018-06-16T09:21:42.561Z,32.00
2018-06-16T09:24:10.883Z,32.20
2018-06-16T09:26:39.664Z,32.80
2018-06-16T09:29:07.938Z,32.30
2018-06-16T09:31:36.191Z,32.90
2018-06-16T09:34:04.542Z,33.40
2018-06-16T09:36:33.044Z,33.10
2018-06-16T09:39:01.428Z,31.70
2018-06-16T09:41:29.846Z,31.10
2018-06-16T09:43:58.167Z,30.00
2018-06-16T09:46:26.552Z,30.00
2018-06-16T09:48:54.839Z,30.60
2018-06-16T09:51:23.166Z,30.90
2018-06-16T09:53:51.456Z,30.60
2018-06-16T09:58:47.834Z,33.10
2018-06-16T10:01:16.132Z,33.60
2018-06-16T10:03:44.458Z,35.00
2018-06-16T10:06:12.753Z,35.40
2018-06-16T10:08:41.280Z,34.80
2018-06-16T10:11:09.722Z,35.20
2018-06-16T10:13:38.190Z,35.00
2018-06-16T10:16:06.755Z,34.40
2018-06-16T10:21:03.056Z,33.10
2018-06-16T10:23:31.533Z,32.60
2018-06-16T10:26:00.085Z,32.40
2018-06-16T10:28:28.424Z,32.40
2018-06-16T10:30:56.996Z,32.00
2018-06-16T10:33:25.420Z,31.90
2018-06-16T10:35:53.811Z,31.50
2018-06-16T10:38:22.092Z,30.80
2018-06-16T10:40:50.442Z,30.40
2018-06-16T10:45:46.873Z,31.10
2018-06-16T10:48:15.288Z,31.00
2018-06-16T10:50:43.626Z,31.40
2018-06-16T10:53:12.048Z,31.70
2018-06-16T10:55:40.363Z,31.90
2018-06-16T10:58:08.703Z,31.70
2018-06-16T11:00:37.214Z,32.10
2018-06-16T11:03:05.909Z,32.70
2018-06-16T11:05:34.646Z,32.80
2018-06-16T11:08:03.186Z,32.20
2018-06-16T11:10:31.725Z,32.70
2018-06-16T11:13:00.414Z,33.20
2018-06-16T11:15:28.973Z,33.00
2018-06-16T11:17:57.542Z,32.80
2018-06-16T11:23:00.823Z,32.00
2018-06-16T11:25:29.698Z,31.70
2018-06-16T11:27:58.396Z,31.10
2018-06-16T11:30:27.347Z,30.40
2018-06-16T11:32:55.691Z,30.00
2018-06-16T11:35:24.947Z,29.80
2018-06-16T11:37:53.209Z,29.40
2018-06-16T11:40:21.498Z,29.50
2018-06-16T11:42:49.763Z,29.50
2018-06-16T11:45:18.043Z,29.80
2018-06-16T11:47:47.275Z,29.50
2018-06-16T11:50:15.856Z,29.50
2018-06-16T11:52:44.440Z,29.30
2018-06-16T11:55:12.893Z,29.00
2018-06-16T11:57:41.447Z,28.70
2018-06-16T12:00:09.808Z,28.60
2018-06-16T12:05:06.463Z,28.70
2018-06-16T12:07:34.811Z,28.50
2018-06-16T12:10:03.244Z,28.10
2018-06-16T12:12:31.603Z,27.90
2018-06-16T12:17:27.905Z,29.70
2018-06-16T12:19:56.325Z,31.40
2018-06-16T12:24:53.296Z,34.60
2018-06-16T12:29:49.629Z,36.30
2018-06-16T12:32:17.847Z,35.50
2018-06-16T12:34:46.246Z,34.20
2018-06-16T12:37:14.636Z,34.60
2018-06-16T12:39:42.892Z,35.80
2018-06-16T12:42:11.227Z,37.50
2018-06-16T12:44:39.607Z,37.80
2018-06-16T12:47:07.831Z,36.30
2018-06-16T12:49:36.099Z,35.20
2018-06-16T12:52:04.398Z,33.90
2018-06-16T12:54:32.743Z,33.20
2018-06-16T12:57:01.063Z,32.40
2018-06-16T12:59:29.280Z,31.50
2018-06-16T13:01:57.563Z,31.10
2018-06-16T13:04:25.916Z,30.50
2018-06-16T13:06:54.204Z,29.80
2018-06-16T13:09:22.468Z,29.60
2018-06-16T13:11:50.827Z,29.40
2018-06-16T13:14:19.131Z,29.30
2018-06-16T13:16:47.414Z,29.40
2018-06-16T13:19:15.655Z,29.70
2018-06-16T13:21:43.894Z,29.90
2018-06-16T13:24:12.183Z,30.20
2018-06-16T13:26:40.496Z,30.40
2018-06-16T13:29:08.780Z,30.60
2018-06-16T13:31:37.019Z,30.50
2018-06-16T13:34:05.355Z,30.20
2018-06-16T13:36:33.654Z,30.00
2018-06-16T13:39:01.928Z,30.10
2018-06-16T13:41:30.299Z,30.50
2018-06-16T13:43:58.543Z,30.30
2018-06-16T13:46:26.871Z,30.30
2018-06-16T13:48:55.116Z,29.90
2018-06-16T13:51:23.383Z,29.60
2018-06-16T13:53:51.659Z,29.90
2018-06-16T13:56:19.959Z,30.00
2018-06-16T13:58:48.209Z,30.30
2018-06-16T14:01:16.513Z,30.10
2018-06-16T14:03:44.827Z,30.00
2018-06-16T14:06:13.124Z,30.00
2018-06-16T14:11:09.408Z,29.30
2018-06-16T14:13:37.690Z,29.30
2018-06-16T14:16:06.060Z,29.10
2018-06-16T14:18:34.360Z,29.00
2018-06-16T14:21:02.750Z,29.10
2018-06-16T14:23:31.812Z,28.90
2018-06-16T14:26:00.322Z,28.90
2018-06-16T14:28:28.598Z,28.50
2018-06-16T14:30:56.876Z,28.30
2018-06-16T14:33:25.688Z,28.40
2018-06-16T14:35:54.406Z,28.20
2018-06-16T14:38:22.656Z,28.30
2018-06-16T14:43:19.063Z,29.00
2018-06-16T14:45:47.410Z,29.10
2018-06-16T14:48:16.088Z,29.00
2018-06-16T14:50:44.660Z,28.60
2018-06-16T14:53:13.303Z,28.20
2018-06-16T14:55:41.963Z,28.40
2018-06-16T14:58:10.849Z,28.50
2018-06-16T15:00:39.254Z,28.50
2018-06-16T15:03:07.753Z,28.50
2018-06-16T15:05:36.564Z,28.60
2018-06-16T15:08:05.083Z,28.40
2018-06-16T15:10:33.668Z,28.70
2018-06-16T15:17:58.758Z,28.50
2018-06-16T15:20:27.292Z,28.60
2018-06-16T15:22:56.157Z,28.50
2018-06-16T15:25:25.020Z,28.70
2018-06-16T15:27:53.693Z,28.70
2018-06-16T15:30:22.231Z,28.70
2018-06-16T15:32:50.515Z,28.50
2018-06-16T15:35:18.844Z,28.50
2018-06-16T15:37:47.172Z,28.50
2018-06-16T15:40:15.427Z,28.30
2018-06-16T15:42:43.736Z,28.20
2018-06-16T15:45:12.019Z,28.00
2018-06-16T15:47:40.295Z,28.00
2018-06-16T15:50:08.633Z,28.20
2018-06-16T15:52:36.913Z,28.30
2018-06-16T15:55:05.298Z,28.40
2018-06-16T15:57:33.696Z,28.40
2018-06-16T16:00:02.099Z,28.40
2018-06-16T16:02:30.557Z,28.20
2018-06-16T16:04:58.856Z,28.20
2018-06-16T16:07:27.233Z,28.00
2018-06-16T16:09:55.609Z,27.90
2018-06-16T16:12:24.064Z,27.80
2018-06-16T16:14:52.340Z,27.70
2018-06-16T16:17:20.658Z,27.60
2018-06-16T16:22:16.983Z,27.40
2018-06-16T16:24:45.306Z,27.30
2018-06-16T16:27:13.584Z,27.30
2018-06-16T16:29:41.870Z,27.30
2018-06-16T16:32:10.174Z,27.30
2018-06-16T16:34:38.474Z,27.90
2018-06-16T16:37:06.756Z,28.60
2018-06-16T16:39:35.020Z,29.50
2018-06-16T16:42:03.300Z,29.50
2018-06-16T16:44:32.328Z,29.90
2018-06-16T16:47:00.623Z,29.90
2018-06-16T16:49:28.885Z,29.70
2018-06-16T16:51:57.171Z,29.00
2018-06-16T16:54:25.554Z,27.80
2018-06-16T16:56:53.833Z,27.40
2018-06-16T16:59:22.124Z,27.00
2018-06-16T17:01:50.478Z,26.70
2018-06-16T17:04:18.732Z,26.70
2018-06-16T17:06:46.983Z,26.40
2018-06-16T17:09:15.306Z,26.00
2018-06-16T17:11:43.555Z,26.00
2018-06-16T17:16:39.771Z,25.40
2018-06-16T17:19:08.053Z,25.40
2018-06-16T17:21:36.311Z,25.50
2018-06-16T17:24:04.709Z,25.70
2018-06-16T17:26:33.008Z,25.70
2018-06-16T17:31:29.300Z,25.60
2018-06-16T17:33:57.597Z,25.60
2018-06-16T17:36:25.895Z,25.30
2018-06-16T17:38:54.119Z,25.20
2018-06-16T17:41:22.359Z,24.90
2018-06-16T17:43:50.997Z,24.80
2018-06-16T17:46:19.334Z,24.60
2018-06-16T17:48:48.031Z,24.40
2018-06-16T17:51:16.438Z,24.20
2018-06-16T17:53:44.695Z,24.00
2018-06-16T17:56:13.578Z,24.10
2018-06-16T17:58:42.121Z,23.90
2018-06-16T18:03:39.056Z,23.80
2018-06-16T18:06:07.328Z,23.90
2018-06-16T18:08:35.618Z,24.00
2018-06-16T18:11:03.994Z,23.90
2018-06-16T18:13:32.332Z,23.90
2018-06-16T18:16:00.730Z,23.90
2018-06-16T18:18:29.031Z,23.80
2018-06-16T18:20:57.303Z,23.40
2018-06-16T18:23:26.087Z,23.00
2018-06-16T18:25:54.644Z,22.90
2018-06-16T18:28:22.899Z,22.60
2018-06-16T18:30:51.214Z,22.40
2018-06-16T18:33:19.430Z,22.40
2018-06-16T18:35:47.734Z,22.30
2018-06-16T18:38:16.000Z,22.00
2018-06-16T18:40:44.247Z,22.10
2018-06-16T18:45:40.572Z,21.80
2018-06-16T18:48:08.958Z,21.80
2018-06-16T18:50:37.221Z,21.90
2018-06-16T18:53:05.671Z,21.70
2018-06-16T18:55:34.331Z,21.70
2018-06-16T19:00:30.663Z,21.60
2018-06-16T19:02:58.973Z,21.60
2018-06-16T19:05:27.248Z,21.60
2018-06-16T19:07:55.628Z,21.70
2018-06-16T19:10:23.911Z,21.70
2018-06-16T19:12:52.204Z,21.70
2018-06-16T19:15:20.459Z,21.80
2018-06-16T19:17:48.785Z,21.70
2018-06-16T19:20:18.365Z,21.70
2018-06-16T19:22:47.274Z,21.70
2018-06-16T19:25:15.584Z,21.80
2018-06-16T19:27:43.959Z,21.90
2018-06-16T19:30:12.351Z,21.90
2018-06-16T19:32:40.650Z,21.80
2018-06-16T19:35:09.011Z,21.80
2018-06-16T19:37:37.393Z,21.80
2018-06-16T19:40:05.772Z,21.90
2018-06-16T19:42:38.203Z,21.90
2018-06-16T19:45:06.779Z,21.90
2018-06-16T19:47:35.230Z,22.00
2018-06-16T19:50:03.665Z,22.00
2018-06-16T19:55:00.547Z,22.10
2018-06-16T19:57:28.852Z,22.10
2018-06-16T19:59:57.216Z,22.10
2018-06-16T20:02:25.708Z,22.10
2018-06-16T20:04:54.209Z,22.10
2018-06-16T20:07:22.630Z,22.00
2018-06-16T20:09:50.979Z,22.00
2018-06-16T20:12:19.232Z,22.00
2018-06-16T20:14:47.560Z,21.90
2018-06-16T20:17:15.826Z,21.90
2018-06-16T20:22:12.237Z,21.90
2018-06-16T20:24:40.657Z,21.80
2018-06-16T20:29:37.538Z,21.80
2018-06-16T20:32:06.218Z,21.80
2018-06-16T20:34:35.037Z,21.80
2018-06-16T20:37:03.679Z,21.70
2018-06-16T20:39:32.224Z,21.70
2018-06-16T20:42:00.553Z,21.50
2018-06-16T20:44:28.843Z,21.40
2018-06-16T20:46:57.109Z,21.50
2018-06-16T20:49:25.402Z,21.50
2018-06-16T20:51:53.644Z,21.50
2018-06-16T20:56:50.026Z,21.60
2018-06-16T20:59:18.324Z,21.60
2018-06-16T21:01:46.659Z,21.60
2018-06-16T21:04:14.922Z,21.50
2018-06-16T21:06:43.176Z,21.40
2018-06-16T21:09:12.192Z,21.30
2018-06-16T21:11:40.561Z,21.30
2018-06-16T21:16:37.206Z,21.20
2018-06-16T21:19:05.813Z,21.10
2018-06-16T21:21:34.180Z,20.90
2018-06-16T21:24:02.397Z,20.90
2018-06-16T21:26:31.173Z,20.90
2018-06-16T21:28:59.572Z,20.90
2018-06-16T21:31:27.818Z,20.90
2018-06-16T21:33:56.077Z,20.90
2018-06-16T21:36:24.380Z,20.80
2018-06-16T21:38:52.613Z,20.80
2018-06-16T21:41:20.859Z,20.70
2018-06-16T21:43:49.180Z,20.60
2018-06-16T21:46:17.477Z,20.60
2018-06-16T21:48:45.792Z,20.60
2018-06-16T21:51:14.116Z,20.60
2018-06-16T21:53:42.400Z,20.50
2018-06-16T21:56:10.714Z,20.50
2018-06-16T21:58:38.975Z,20.50
2018-06-16T22:01:07.240Z,20.50
2018-06-16T22:03:35.515Z,20.40
2018-06-16T22:06:03.744Z,20.10
2018-06-16T22:08:33.436Z,20.00
2018-06-16T22:11:02.913Z,20.00
2018-06-16T22:13:31.536Z,19.80
2018-06-16T22:15:59.950Z,19.80
2018-06-16T22:18:28.535Z,19.70
2018-06-16T22:20:57.859Z,19.70
2018-06-16T22:23:26.260Z,19.70
2018-06-16T22:25:54.515Z,19.50
2018-06-16T22:28:22.786Z,19.50
2018-06-16T22:30:51.125Z,19.60
2018-06-16T22:35:47.771Z,19.50
2018-06-16T22:38:16.056Z,19.40
2018-06-16T22:40:44.340Z,19.40
2018-06-16T22:43:12.621Z,19.40
2018-06-16T22:45:40.924Z,19.40
2018-06-16T22:48:09.210Z,19.40
2018-06-16T22:50:37.529Z,19.30
2018-06-16T22:53:05.839Z,19.20
2018-06-16T22:55:34.094Z,19.20
2018-06-16T22:58:02.373Z,19.10
2018-06-16T23:02:59.135Z,19.00
2018-06-16T23:05:27.417Z,19.00
2018-06-16T23:07:55.692Z,18.90
2018-06-16T23:10:24.797Z,18.90
2018-06-16T23:12:53.079Z,18.90
2018-06-16T23:15:21.331Z,18.70
2018-06-16T23:17:50.326Z,18.70
2018-06-16T23:22:46.557Z,18.50
2018-06-16T23:25:14.865Z,18.60
2018-06-16T23:27:43.811Z,18.60
2018-06-16T23:30:12.037Z,18.60
2018-06-16T23:32:40.314Z,18.60
2018-06-16T23:35:08.549Z,18.60
2018-06-16T23:37:36.904Z,18.60
2018-06-16T23:40:05.177Z,18.60
2018-06-16T23:42:33.456Z,18.60
2018-06-16T23:45:01.714Z,18.50
2018-06-16T23:47:29.978Z,18.40
2018-06-16T23:49:58.287Z,18.30
2018-06-16T23:52:26.587Z,18.20
2018-06-16T23:54:54.853Z,18.20
2018-06-16T23:57:23.147Z,18.20
2018-06-16T23:59:51.378Z,18.30
